createdAt,value
2019-03-22T00:00:39.137Z,19.63
2019-03-22T00:03:10.014Z,21.27
2019-03-22T00:05:40.899Z,20.90
2019-03-22T00:08:12.105Z,23.50
2019-03-22T00:10:42.604Z,21.17
2019-03-22T00:13:13.266Z,22.23
2019-03-22T00:15:43.816Z,22.03
2019-03-22T00:18:14.440Z,21.90
2019-03-22T00:20:44.852Z,22.50
2019-03-22T00:23:15.346Z,21.80
2019-03-22T00:25:47.377Z,21.80
2019-03-22T00:28:18.554Z,23.13
2019-03-22T00:30:49.052Z,22.33
2019-03-22T00:33:19.970Z,22.47
2019-03-22T00:35:50.661Z,23.93
2019-03-22T00:38:21.123Z,22.27
2019-03-22T00:40:51.632Z,22.43
2019-03-22T00:43:22.045Z,22.37
2019-03-22T00:45:52.562Z,21.90
2019-03-22T00:48:24.927Z,21.30
2019-03-22T00:50:55.421Z,20.87
2019-03-22T00:53:26.366Z,21.33
2019-03-22T00:55:56.915Z,21.20
2019-03-22T00:58:27.472Z,20.70
2019-03-22T01:00:58.101Z,21.33
2019-03-22T01:03:29.450Z,22.13
2019-03-22T01:06:00.415Z,21.27
2019-03-22T01:08:31.208Z,21.30
2019-03-22T01:11:01.860Z,21.63
2019-03-22T01:13:32.621Z,21.97
2019-03-22T01:16:04.256Z,21.83
2019-03-22T01:18:34.769Z,21.37
2019-03-22T01:21:05.363Z,21.93
2019-03-22T01:23:35.839Z,19.70
2019-03-22T01:26:06.470Z,22.13
2019-03-22T01:28:38.405Z,22.27
2019-03-22T01:31:08.776Z,23.13
2019-03-22T01:33:39.151Z,22.90
2019-03-22T01:36:09.793Z,22.33
2019-03-22T01:38:42.249Z,22.23
2019-03-22T01:41:12.778Z,21.17
2019-03-22T01:43:43.564Z,22.03
2019-03-22T01:46:13.976Z,21.10
2019-03-22T01:48:44.888Z,21.63
2019-03-22T01:51:16.523Z,18.67
2019-03-22T01:53:47.008Z,22.27
2019-03-22T01:56:17.907Z,19.43
2019-03-22T01:58:48.353Z,18.70
2019-03-22T02:01:18.922Z,19.47
2019-03-22T02:03:49.361Z,21.93
2019-03-22T02:06:20.311Z,23.43
2019-03-22T02:08:52.455Z,20.33
2019-03-22T02:11:23.030Z,20.97
2019-03-22T02:13:53.428Z,22.90
2019-03-22T02:16:24.114Z,20.73
2019-03-22T02:18:55.474Z,22.70
2019-03-22T02:21:26.237Z,21.10
2019-03-22T02:23:56.994Z,21.60
2019-03-22T02:26:27.426Z,24.77
2019-03-22T02:28:58.015Z,24.77
2019-03-22T02:31:30.290Z,26.57
2019-03-22T02:34:00.816Z,26.40
2019-03-22T02:36:31.415Z,25.47
2019-03-22T02:39:01.996Z,24.70
2019-03-22T02:41:33.983Z,25.37
2019-03-22T02:44:04.954Z,22.27
2019-03-22T02:46:35.414Z,23.77
2019-03-22T02:49:06.219Z,24.30
2019-03-22T02:51:36.716Z,23.70
2019-03-22T02:54:07.245Z,24.30
2019-03-22T02:56:37.758Z,22.97
2019-03-22T02:59:08.845Z,22.70
2019-03-22T03:01:39.260Z,24.17
2019-03-22T03:04:10.082Z,21.80
2019-03-22T03:06:40.498Z,22.93
2019-03-22T03:09:11.214Z,22.10
2019-03-22T03:11:41.713Z,21.97
2019-03-22T03:14:12.666Z,21.70
2019-03-22T03:16:44.319Z,22.37
2019-03-22T03:19:16.172Z,22.53
2019-03-22T03:21:46.853Z,22.47
2019-03-22T03:24:17.840Z,23.27
2019-03-22T03:26:48.311Z,22.10
2019-03-22T03:29:18.822Z,22.40
2019-03-22T03:31:49.387Z,23.73
2019-03-22T03:34:20.236Z,23.23
2019-03-22T03:36:50.769Z,22.20
2019-03-22T03:39:21.179Z,20.97
2019-03-22T03:41:51.639Z,21.33
2019-03-22T03:44:22.045Z,21.93
2019-03-22T03:46:52.662Z,21.73
2019-03-22T03:49:23.174Z,21.63
2019-03-22T03:51:54.320Z,20.93
2019-03-22T03:54:24.789Z,21.13
2019-03-22T03:56:55.367Z,21.13
2019-03-22T03:59:26.034Z,21.97
2019-03-22T04:01:57.096Z,21.43
2019-03-22T04:04:27.627Z,21.97
2019-03-22T04:06:58.371Z,22.37
2019-03-22T04:09:28.990Z,20.73
2019-03-22T04:11:59.518Z,21.23
2019-03-22T04:14:31.455Z,21.47
2019-03-22T04:17:02.632Z,21.33
2019-03-22T04:19:33.203Z,20.23
2019-03-22T04:22:03.968Z,18.83
2019-03-22T04:24:34.729Z,25.53
2019-03-22T04:27:05.558Z,18.83
2019-03-22T04:29:36.337Z,20.60
2019-03-22T04:32:06.757Z,21.90
2019-03-22T04:34:37.252Z,19.60
2019-03-22T04:37:07.794Z,19.43
2019-03-22T04:39:38.172Z,19.80
2019-03-22T04:42:09.108Z,18.50
2019-03-22T04:44:40.141Z,18.43
2019-03-22T04:47:11.463Z,17.67
2019-03-22T04:49:41.998Z,17.70
2019-03-22T04:52:12.657Z,16.00
2019-03-22T04:54:43.215Z,17.67
2019-03-22T04:57:13.958Z,18.63
2019-03-22T04:59:44.536Z,18.80
2019-03-22T05:02:15.092Z,17.70
2019-03-22T05:04:46.543Z,17.93
2019-03-22T05:07:17.948Z,18.03
2019-03-22T05:09:49.485Z,18.70
2019-03-22T05:12:20.079Z,18.03
2019-03-22T05:14:50.721Z,18.77
2019-03-22T05:17:40.174Z,18.57
2019-03-22T05:20:10.550Z,18.10
2019-03-22T05:22:41.252Z,18.33
2019-03-22T05:25:12.042Z,19.00
2019-03-22T05:27:44.169Z,16.67
2019-03-22T05:30:51.180Z,17.63
2019-03-22T05:33:22.072Z,16.50
2019-03-22T05:35:52.811Z,15.83
2019-03-22T05:38:23.495Z,17.57
2019-03-22T05:40:54.103Z,16.87
2019-03-22T05:43:24.864Z,16.93
2019-03-22T05:45:56.137Z,15.20
2019-03-22T05:48:26.755Z,16.83
2019-03-22T05:50:57.374Z,17.80
2019-03-22T05:53:27.902Z,17.60
2019-03-22T05:55:58.576Z,17.50
2019-03-22T05:58:29.731Z,16.13
2019-03-22T06:01:00.401Z,16.13
2019-03-22T06:03:31.599Z,17.37
2019-03-22T06:06:02.217Z,17.37
2019-03-22T06:08:32.813Z,16.73
2019-03-22T06:11:04.349Z,17.33
2019-03-22T06:13:34.910Z,16.23
2019-03-22T06:16:05.987Z,16.30
2019-03-22T06:18:36.971Z,17.80
2019-03-22T06:21:08.342Z,15.50
2019-03-22T06:23:39.016Z,16.80
2019-03-22T06:26:09.970Z,15.67
2019-03-22T06:28:40.658Z,15.60
2019-03-22T06:31:11.081Z,17.03
2019-03-22T06:33:41.750Z,16.27
2019-03-22T06:36:12.796Z,15.83
2019-03-22T06:38:43.449Z,16.50
2019-03-22T06:41:14.395Z,15.30
2019-03-22T06:43:44.932Z,14.50
2019-03-22T06:46:15.482Z,14.27
2019-03-22T06:48:45.874Z,14.73
2019-03-22T06:51:16.427Z,15.00
2019-03-22T06:53:47.052Z,14.33
2019-03-22T06:56:18.304Z,14.43
2019-03-22T06:58:51.819Z,14.17
2019-03-22T07:01:22.477Z,13.57
2019-03-22T07:03:53.924Z,13.57
2019-03-22T07:06:25.079Z,14.67
2019-03-22T07:08:56.114Z,15.10
2019-03-22T07:11:27.097Z,13.20
2019-03-22T07:13:59.085Z,14.43
2019-03-22T07:16:29.926Z,14.63
2019-03-22T07:19:00.535Z,15.70
2019-03-22T07:21:31.016Z,15.17
2019-03-22T07:24:01.613Z,15.67
2019-03-22T07:26:32.471Z,14.03
2019-03-22T07:29:05.525Z,13.00
2019-03-22T07:31:36.450Z,13.90
2019-03-22T07:34:07.686Z,14.10
2019-03-22T07:36:38.779Z,13.43
2019-03-22T07:39:09.802Z,13.37
2019-03-22T07:41:40.509Z,13.23
2019-03-22T07:44:11.363Z,13.47
2019-03-22T07:46:42.216Z,14.27
2019-03-22T07:49:13.641Z,13.50
2019-03-22T07:51:44.374Z,13.97
2019-03-22T07:54:15.251Z,13.97
2019-03-22T07:56:45.861Z,14.20
2019-03-22T07:59:16.540Z,14.00
2019-03-22T08:01:47.163Z,14.43
2019-03-22T08:04:18.431Z,13.50
2019-03-22T08:06:48.870Z,14.03
2019-03-22T08:09:19.457Z,15.77
2019-03-22T08:11:50.089Z,15.07
2019-03-22T08:14:20.531Z,14.30
2019-03-22T08:16:50.990Z,13.97
2019-03-22T08:19:21.812Z,14.27
2019-03-22T08:21:52.531Z,15.10
2019-03-22T08:24:24.439Z,14.27
2019-03-22T08:26:55.500Z,14.63
2019-03-22T08:29:26.067Z,14.87
2019-03-22T08:31:56.636Z,14.90
2019-03-22T08:34:27.593Z,14.63
2019-03-22T08:36:58.084Z,13.43
2019-03-22T08:39:28.947Z,14.97
2019-03-22T08:41:59.594Z,13.50
2019-03-22T08:44:31.324Z,14.07
2019-03-22T08:47:02.175Z,13.77
2019-03-22T08:49:33.669Z,14.37
2019-03-22T08:52:04.497Z,15.10
2019-03-22T08:54:38.097Z,13.13
2019-03-22T08:57:07.924Z,13.57
2019-03-22T08:59:38.614Z,14.17
2019-03-22T09:02:09.258Z,13.63
2019-03-22T09:04:40.553Z,14.40
2019-03-22T09:07:11.079Z,12.87
2019-03-22T09:09:42.084Z,12.67
2019-03-22T09:12:13.762Z,14.10
2019-03-22T09:14:44.392Z,13.53
2019-03-22T09:17:16.155Z,12.53
2019-03-22T09:19:51.159Z,9.63
2019-03-22T09:22:21.744Z,10.20
2019-03-22T09:24:52.268Z,8.47
2019-03-22T09:27:23.562Z,9.73
2019-03-22T09:29:54.803Z,8.67
2019-03-22T09:32:25.381Z,7.60
2019-03-22T09:34:56.199Z,8.77
2019-03-22T09:37:27.172Z,9.53
2019-03-22T09:39:57.997Z,9.63
2019-03-22T09:42:28.957Z,9.27
2019-03-22T09:44:59.841Z,7.87
2019-03-22T09:47:30.478Z,8.40
2019-03-22T09:50:00.998Z,9.00
2019-03-22T09:52:33.639Z,9.03
2019-03-22T09:55:13.427Z,8.07
2019-03-22T09:57:35.552Z,12.13
2019-03-22T10:00:09.015Z,12.67
2019-03-22T10:02:39.868Z,10.73
2019-03-22T10:05:10.531Z,8.67
2019-03-22T10:07:41.007Z,9.67
2019-03-22T10:10:11.426Z,9.60
2019-03-22T10:12:42.190Z,9.07
2019-03-22T10:15:12.895Z,11.80
2019-03-22T10:17:43.726Z,10.00
2019-03-22T10:20:14.258Z,10.27
2019-03-22T10:22:45.717Z,11.43
2019-03-22T10:25:16.687Z,9.37
2019-03-22T10:27:47.729Z,9.90
2019-03-22T10:30:18.965Z,9.17
2019-03-22T10:32:50.035Z,9.37
2019-03-22T10:35:26.357Z,7.97
2019-03-22T10:38:00.445Z,11.17
2019-03-22T10:40:25.659Z,8.70
2019-03-22T10:42:56.464Z,11.47
2019-03-22T10:45:27.138Z,9.10
2019-03-22T10:47:58.401Z,8.97
2019-03-22T10:50:29.318Z,9.33
2019-03-22T10:53:00.141Z,9.57
2019-03-22T10:55:30.958Z,10.10
2019-03-22T10:58:01.445Z,9.07
2019-03-22T11:00:32.348Z,10.23
2019-03-22T11:03:03.001Z,9.63
2019-03-22T11:05:33.650Z,10.77
2019-03-22T11:08:04.261Z,10.30
2019-03-22T11:10:35.242Z,9.30
2019-03-22T11:13:06.346Z,10.17
2019-03-22T11:15:37.044Z,11.53
2019-03-22T11:18:08.250Z,11.07
2019-03-22T11:20:40.151Z,11.03
2019-03-22T11:23:10.686Z,10.57
2019-03-22T11:25:42.345Z,11.23
2019-03-22T11:28:13.289Z,10.83
2019-03-22T11:30:45.226Z,10.17
2019-03-22T11:33:17.498Z,9.70
2019-03-22T11:35:48.013Z,10.53
2019-03-22T11:38:19.980Z,10.50
2019-03-22T11:40:50.710Z,10.73
2019-03-22T11:43:21.708Z,10.87
2019-03-22T11:45:52.840Z,10.60
2019-03-22T11:48:23.663Z,10.23
2019-03-22T11:50:54.564Z,10.60
2019-03-22T11:53:25.498Z,10.20
2019-03-22T11:55:55.961Z,10.97
2019-03-22T11:58:26.601Z,10.07
2019-03-22T12:00:57.000Z,9.77
2019-03-22T12:03:27.533Z,9.83
2019-03-22T12:05:58.143Z,9.83
2019-03-22T12:08:29.270Z,9.53
2019-03-22T12:10:59.842Z,9.43
2019-03-22T12:13:30.481Z,9.37
2019-03-22T12:16:01.274Z,9.10
2019-03-22T12:18:31.878Z,9.23
2019-03-22T12:21:03.869Z,8.43
2019-03-22T12:23:35.051Z,8.60
2019-03-22T12:26:06.585Z,8.97
2019-03-22T12:28:39.673Z,9.87
2019-03-22T12:31:10.825Z,11.73
2019-03-22T12:33:42.602Z,11.33
2019-03-22T12:36:13.311Z,11.33
2019-03-22T12:38:43.876Z,9.93
2019-03-22T12:41:14.304Z,11.33
2019-03-22T12:43:44.696Z,11.97
2019-03-22T12:46:15.533Z,12.80
2019-03-22T12:48:46.765Z,11.00
2019-03-22T12:51:17.812Z,12.17
2019-03-22T12:53:48.625Z,10.77
2019-03-22T12:56:19.211Z,10.70
2019-03-22T12:58:49.644Z,11.60
2019-03-22T13:01:20.948Z,13.00
2019-03-22T13:03:51.472Z,10.87
2019-03-22T13:06:22.230Z,11.47
2019-03-22T13:08:53.513Z,9.37
2019-03-22T13:11:24.620Z,10.97
2019-03-22T13:13:56.892Z,10.63
2019-03-22T13:16:27.649Z,10.50
2019-03-22T13:18:58.490Z,14.37
2019-03-22T13:21:29.561Z,13.40
2019-03-22T13:23:59.982Z,12.57
2019-03-22T13:26:30.466Z,11.43
2019-03-22T13:29:02.129Z,11.20
2019-03-22T13:31:34.324Z,11.23
2019-03-22T13:34:04.962Z,12.10
2019-03-22T13:36:36.165Z,11.70
2019-03-22T13:39:09.457Z,10.93
2019-03-22T13:41:40.977Z,9.70
2019-03-22T13:44:11.650Z,10.57
2019-03-22T13:46:42.251Z,8.83
2019-03-22T13:49:12.746Z,9.77
2019-03-22T13:51:43.179Z,10.17
2019-03-22T13:54:13.994Z,10.70
2019-03-22T13:56:44.756Z,11.20
2019-03-22T13:59:15.395Z,10.00
2019-03-22T14:01:46.223Z,11.13
2019-03-22T14:04:19.305Z,13.13
2019-03-22T14:06:50.363Z,14.47
2019-03-22T14:09:21.281Z,15.07
2019-03-22T14:11:52.816Z,20.17
2019-03-22T14:14:23.166Z,16.60
2019-03-22T14:16:54.114Z,15.17
2019-03-22T14:19:24.860Z,15.53
2019-03-22T14:21:55.500Z,14.40
2019-03-22T14:24:26.128Z,15.30
2019-03-22T14:26:57.466Z,14.13
2019-03-22T14:29:29.552Z,15.83
2019-03-22T14:32:00.602Z,19.20
2019-03-22T14:34:31.664Z,18.83
2019-03-22T14:37:04.031Z,20.33
2019-03-22T14:39:34.930Z,21.60
2019-03-22T14:44:49.490Z,18.33
2019-03-22T14:47:20.265Z,16.47
2019-03-22T14:49:51.062Z,14.47
2019-03-22T14:52:23.393Z,13.73
2019-03-22T14:54:54.048Z,17.87
2019-03-22T14:57:25.011Z,17.13
2019-03-22T14:59:59.274Z,17.60
2019-03-22T15:02:28.817Z,15.90
2019-03-22T15:04:59.519Z,18.43
2019-03-22T15:07:30.901Z,21.27
2019-03-22T15:10:02.486Z,21.53
2019-03-22T15:12:33.536Z,24.10
2019-03-22T15:15:08.533Z,23.67
2019-03-22T15:17:59.010Z,27.47
2019-03-22T15:20:47.050Z,27.40
2019-03-22T15:23:23.928Z,32.90
2019-03-22T15:26:12.613Z,28.30
2019-03-22T15:29:01.734Z,33.67
2019-03-22T15:31:44.138Z,30.90
2019-03-22T15:34:22.868Z,24.93
2019-03-22T15:36:55.724Z,27.33
2019-03-22T15:39:31.328Z,30.40
2019-03-22T15:42:03.839Z,26.83
